sensor_id;sensor_type;location;lat;lon;timestamp;temperature;humidity
37050;DHT22;22958;51.232;6.826;2023-06-04T00:00:11;14.80;61.00
37050;DHT22;22958;51.232;6.826;2023-06-04T00:02:36;14.70;60.80
37050;DHT22;22958;51.232;6.826;2023-06-04T00:05:02;14.70;60.80
37050;DHT22;22958;51.232;6.826;2023-06-04T00:07:28;14.80;61.20
37050;DHT22;22958;51.232;6.826;2023-06-04T00:09:54;14.80;61.40
37050;DHT22;22958;51.232;6.826;2023-06-04T00:12:19;14.80;61.60
37050;DHT22;22958;51.232;6.826;2023-06-04T00:14:45;14.90;60.80
37050;DHT22;22958;51.232;6.826;2023-06-04T00:17:11;14.90;61.00
37050;DHT22;22958;51.232;6.826;2023-06-04T00:19:38;14.90;60.90
37050;DHT22;22958;51.232;6.826;2023-06-04T00:22:05;14.80;61.00
37050;DHT22;22958;51.232;6.826;2023-06-04T00:24:31;14.80;60.90
37050;DHT22;22958;51.232;6.826;2023-06-04T00:26:57;14.70;60.90
37050;DHT22;22958;51.232;6.826;2023-06-04T00:29:22;14.80;61.30
37050;DHT22;22958;51.232;6.826;2023-06-04T00:31:48;14.70;61.80
37050;DHT22;22958;51.232;6.826;2023-06-04T00:34:14;14.60;61.80
37050;DHT22;22958;51.232;6.826;2023-06-04T00:36:40;14.60;61.90
37050;DHT22;22958;51.232;6.826;2023-06-04T00:39:06;14.50;62.40
37050;DHT22;22958;51.232;6.826;2023-06-04T00:41:31;14.50;62.40
37050;DHT22;22958;51.232;6.826;2023-06-04T00:43:57;14.60;62.30
37050;DHT22;22958;51.232;6.826;2023-06-04T00:46:26;14.60;61.40
37050;DHT22;22958;51.232;6.826;2023-06-04T00:48:54;14.50;61.70
37050;DHT22;22958;51.232;6.826;2023-06-04T00:51:20;14.50;61.80
37050;DHT22;22958;51.232;6.826;2023-06-04T00:53:48;14.50;62.20
37050;DHT22;22958;51.232;6.826;2023-06-04T00:56:13;14.40;62.70
37050;DHT22;22958;51.232;6.826;2023-06-04T00:58:39;14.30;62.70
37050;DHT22;22958;51.232;6.826;2023-06-04T01:01:09;14.30;63.00
37050;DHT22;22958;51.232;6.826;2023-06-04T01:03:38;14.30;63.40
37050;DHT22;22958;51.232;6.826;2023-06-04T01:06:19;14.20;64.00
37050;DHT22;22958;51.232;6.826;2023-06-04T01:08:50;14.20;64.20
37050;DHT22;22958;51.232;6.826;2023-06-04T01:11:33;14.10;64.70
37050;DHT22;22958;51.232;6.826;2023-06-04T01:14:00;14.10;65.30
37050;DHT22;22958;51.232;6.826;2023-06-04T01:16:27;14.10;65.50
37050;DHT22;22958;51.232;6.826;2023-06-04T01:18:56;14.00;66.00
37050;DHT22;22958;51.232;6.826;2023-06-04T01:21:23;14.00;66.90
37050;DHT22;22958;51.232;6.826;2023-06-04T01:23:52;13.90;67.30
37050;DHT22;22958;51.232;6.826;2023-06-04T01:26:30;13.90;67.70
37050;DHT22;22958;51.232;6.826;2023-06-04T01:28:58;13.80;68.50
37050;DHT22;22958;51.232;6.826;2023-06-04T01:31:25;13.80;68.90
37050;DHT22;22958;51.232;6.826;2023-06-04T01:33:54;13.70;69.80
37050;DHT22;22958;51.232;6.826;2023-06-04T01:36:21;13.70;70.70
37050;DHT22;22958;51.232;6.826;2023-06-04T01:38:46;13.60;71.10
37050;DHT22;22958;51.232;6.826;2023-06-04T01:41:12;13.50;71.70
37050;DHT22;22958;51.232;6.826;2023-06-04T01:43:38;13.50;71.90
37050;DHT22;22958;51.232;6.826;2023-06-04T01:46:03;13.50;72.50
37050;DHT22;22958;51.232;6.826;2023-06-04T01:48:29;13.50;72.90
37050;DHT22;22958;51.232;6.826;2023-06-04T01:50:55;13.50;74.00
37050;DHT22;22958;51.232;6.826;2023-06-04T01:53:20;13.50;73.60
37050;DHT22;22958;51.232;6.826;2023-06-04T01:55:46;13.40;74.10
37050;DHT22;22958;51.232;6.826;2023-06-04T01:58:17;13.40;74.40
37050;DHT22;22958;51.232;6.826;2023-06-04T02:00:48;13.40;74.90
37050;DHT22;22958;51.232;6.826;2023-06-04T02:03:15;13.40;75.40
37050;DHT22;22958;51.232;6.826;2023-06-04T02:05:41;13.40;75.40
37050;DHT22;22958;51.232;6.826;2023-06-04T02:08:06;13.30;76.20
37050;DHT22;22958;51.232;6.826;2023-06-04T02:10:32;13.20;76.50
37050;DHT22;22958;51.232;6.826;2023-06-04T02:13:00;13.20;77.20
37050;DHT22;22958;51.232;6.826;2023-06-04T02:15:27;13.10;77.60
37050;DHT22;22958;51.232;6.826;2023-06-04T02:17:56;13.10;78.30
37050;DHT22;22958;51.232;6.826;2023-06-04T02:20:28;13.10;78.90
37050;DHT22;22958;51.232;6.826;2023-06-04T02:22:57;13.00;79.40
37050;DHT22;22958;51.232;6.826;2023-06-04T02:25:23;12.90;80.00
37050;DHT22;22958;51.232;6.826;2023-06-04T02:27:49;12.90;81.20
37050;DHT22;22958;51.232;6.826;2023-06-04T02:30:15;12.80;82.60
37050;DHT22;22958;51.232;6.826;2023-06-04T02:32:42;12.70;83.30
37050;DHT22;22958;51.232;6.826;2023-06-04T02:35:10;12.70;83.70
37050;DHT22;22958;51.232;6.826;2023-06-04T02:37:35;12.80;83.30
37050;DHT22;22958;51.232;6.826;2023-06-04T02:40:01;12.80;83.60
37050;DHT22;22958;51.232;6.826;2023-06-04T02:42:26;12.80;83.40
37050;DHT22;22958;51.232;6.826;2023-06-04T02:44:52;12.80;83.40
37050;DHT22;22958;51.232;6.826;2023-06-04T02:47:17;12.80;83.40
37050;DHT22;22958;51.232;6.826;2023-06-04T02:49:44;12.80;84.00
37050;DHT22;22958;51.232;6.826;2023-06-04T02:52:10;12.70;84.90
37050;DHT22;22958;51.232;6.826;2023-06-04T02:54:36;12.70;85.20
37050;DHT22;22958;51.232;6.826;2023-06-04T02:57:01;12.60;86.20
37050;DHT22;22958;51.232;6.826;2023-06-04T02:59:27;12.60;86.50
37050;DHT22;22958;51.232;6.826;2023-06-04T03:01:52;12.70;86.90
37050;DHT22;22958;51.232;6.826;2023-06-04T03:04:18;12.60;88.50
37050;DHT22;22958;51.232;6.826;2023-06-04T03:06:43;12.50;89.80
37050;DHT22;22958;51.232;6.826;2023-06-04T03:09:11;12.50;90.30
37050;DHT22;22958;51.232;6.826;2023-06-04T03:11:36;12.50;90.30
37050;DHT22;22958;51.232;6.826;2023-06-04T03:14:02;12.40;90.80
37050;DHT22;22958;51.232;6.826;2023-06-04T03:16:27;12.30;91.30
37050;DHT22;22958;51.232;6.826;2023-06-04T03:18:53;12.40;91.70
37050;DHT22;22958;51.232;6.826;2023-06-04T03:21:18;12.30;91.40
37050;DHT22;22958;51.232;6.826;2023-06-04T03:23:44;12.40;91.80
37050;DHT22;22958;51.232;6.826;2023-06-04T03:26:09;12.40;92.00
37050;DHT22;22958;51.232;6.826;2023-06-04T03:28:38;12.40;92.40
37050;DHT22;22958;51.232;6.826;2023-06-04T03:31:04;12.30;93.20
37050;DHT22;22958;51.232;6.826;2023-06-04T03:33:29;12.20;93.40
37050;DHT22;22958;51.232;6.826;2023-06-04T03:35:55;12.20;93.80
37050;DHT22;22958;51.232;6.826;2023-06-04T03:38:24;12.30;94.40
37050;DHT22;22958;51.232;6.826;2023-06-04T03:40:50;12.20;94.40
37050;DHT22;22958;51.232;6.826;2023-06-04T03:43:15;12.20;95.00
37050;DHT22;22958;51.232;6.826;2023-06-04T03:45:41;12.20;95.30
37050;DHT22;22958;51.232;6.826;2023-06-04T03:48:07;12.20;95.20
37050;DHT22;22958;51.232;6.826;2023-06-04T03:50:32;12.30;95.00
37050;DHT22;22958;51.232;6.826;2023-06-04T03:52:58;12.20;95.40
37050;DHT22;22958;51.232;6.826;2023-06-04T03:55:23;12.30;95.80
37050;DHT22;22958;51.232;6.826;2023-06-04T03:57:49;12.30;96.10
37050;DHT22;22958;51.232;6.826;2023-06-04T04:00:15;12.20;96.70
37050;DHT22;22958;51.232;6.826;2023-06-04T04:02:41;12.20;97.00
37050;DHT22;22958;51.232;6.826;2023-06-04T04:05:07;12.20;97.20
37050;DHT22;22958;51.232;6.826;2023-06-04T04:07:33;12.20;97.40
37050;DHT22;22958;51.232;6.826;2023-06-04T04:09:58;12.20;98.30
37050;DHT22;22958;51.232;6.826;2023-06-04T04:12:24;12.20;98.40
37050;DHT22;22958;51.232;6.826;2023-06-04T04:14:49;12.30;99.20
37050;DHT22;22958;51.232;6.826;2023-06-04T04:17:15;12.20;98.60
37050;DHT22;22958;51.232;6.826;2023-06-04T04:19:41;12.30;99.00
37050;DHT22;22958;51.232;6.826;2023-06-04T04:22:07;12.20;99.60
37050;DHT22;22958;51.232;6.826;2023-06-04T04:24:34;12.30;99.40
37050;DHT22;22958;51.232;6.826;2023-06-04T04:27:02;12.30;99.30
37050;DHT22;22958;51.232;6.826;2023-06-04T04:29:29;12.30;98.80
37050;DHT22;22958;51.232;6.826;2023-06-04T04:31:58;12.40;99.40
37050;DHT22;22958;51.232;6.826;2023-06-04T04:34:26;12.40;98.90
37050;DHT22;22958;51.232;6.826;2023-06-04T04:36:52;12.50;98.30
37050;DHT22;22958;51.232;6.826;2023-06-04T04:39:27;12.60;98.50
37050;DHT22;22958;51.232;6.826;2023-06-04T04:41:54;12.60;98.30
37050;DHT22;22958;51.232;6.826;2023-06-04T04:44:20;12.70;97.90
37050;DHT22;22958;51.232;6.826;2023-06-04T04:46:45;12.80;97.90
37050;DHT22;22958;51.232;6.826;2023-06-04T04:49:11;12.80;97.40
37050;DHT22;22958;51.232;6.826;2023-06-04T04:51:36;12.90;97.20
37050;DHT22;22958;51.232;6.826;2023-06-04T04:54:02;13.00;96.70
37050;DHT22;22958;51.232;6.826;2023-06-04T04:56:28;13.10;96.20
37050;DHT22;22958;51.232;6.826;2023-06-04T04:58:54;13.10;96.20
37050;DHT22;22958;51.232;6.826;2023-06-04T05:01:21;13.20;96.50
37050;DHT22;22958;51.232;6.826;2023-06-04T05:03:46;13.20;96.20
37050;DHT22;22958;51.232;6.826;2023-06-04T05:06:12;13.30;95.90
37050;DHT22;22958;51.232;6.826;2023-06-04T05:08:38;13.50;94.90
37050;DHT22;22958;51.232;6.826;2023-06-04T05:11:03;13.50;95.40
37050;DHT22;22958;51.232;6.826;2023-06-04T05:13:29;13.70;95.30
37050;DHT22;22958;51.232;6.826;2023-06-04T05:15:54;13.80;94.60
37050;DHT22;22958;51.232;6.826;2023-06-04T05:18:20;13.90;94.00
37050;DHT22;22958;51.232;6.826;2023-06-04T05:20:46;14.00;93.30
37050;DHT22;22958;51.232;6.826;2023-06-04T05:23:12;14.10;93.10
37050;DHT22;22958;51.232;6.826;2023-06-04T05:25:38;14.30;92.80
37050;DHT22;22958;51.232;6.826;2023-06-04T05:28:04;14.40;92.60
37050;DHT22;22958;51.232;6.826;2023-06-04T05:30:31;14.60;92.30
37050;DHT22;22958;51.232;6.826;2023-06-04T05:32:56;14.60;91.60
37050;DHT22;22958;51.232;6.826;2023-06-04T05:35:22;14.80;91.30
37050;DHT22;22958;51.232;6.826;2023-06-04T05:37:48;14.80;91.00
37050;DHT22;22958;51.232;6.826;2023-06-04T05:40:19;15.00;90.80
37050;DHT22;22958;51.232;6.826;2023-06-04T05:42:45;15.10;90.80
37050;DHT22;22958;51.232;6.826;2023-06-04T05:45:10;15.20;90.30
37050;DHT22;22958;51.232;6.826;2023-06-04T05:47:36;15.30;90.10
37050;DHT22;22958;51.232;6.826;2023-06-04T05:50:02;15.50;89.90
37050;DHT22;22958;51.232;6.826;2023-06-04T05:52:28;15.50;89.30
37050;DHT22;22958;51.232;6.826;2023-06-04T05:54:53;15.60;89.00
37050;DHT22;22958;51.232;6.826;2023-06-04T05:57:20;15.60;88.60
37050;DHT22;22958;51.232;6.826;2023-06-04T05:59:46;15.70;88.30
37050;DHT22;22958;51.232;6.826;2023-06-04T06:02:11;15.90;87.80
37050;DHT22;22958;51.232;6.826;2023-06-04T06:04:38;16.00;87.10
37050;DHT22;22958;51.232;6.826;2023-06-04T06:07:04;16.10;86.70
37050;DHT22;22958;51.232;6.826;2023-06-04T06:09:30;16.20;86.00
37050;DHT22;22958;51.232;6.826;2023-06-04T06:11:55;16.30;85.80
37050;DHT22;22958;51.232;6.826;2023-06-04T06:14:21;16.40;85.30
37050;DHT22;22958;51.232;6.826;2023-06-04T06:16:48;16.40;85.80
37050;DHT22;22958;51.232;6.826;2023-06-04T06:19:14;16.50;85.20
37050;DHT22;22958;51.232;6.826;2023-06-04T06:21:39;16.60;84.30
37050;DHT22;22958;51.232;6.826;2023-06-04T06:24:05;16.70;83.20
37050;DHT22;22958;51.232;6.826;2023-06-04T06:26:31;16.80;82.50
37050;DHT22;22958;51.232;6.826;2023-06-04T06:28:57;16.80;83.00
37050;DHT22;22958;51.232;6.826;2023-06-04T06:31:22;17.00;82.90
37050;DHT22;22958;51.232;6.826;2023-06-04T06:33:48;17.10;83.40
37050;DHT22;22958;51.232;6.826;2023-06-04T06:36:13;17.20;83.10
37050;DHT22;22958;51.232;6.826;2023-06-04T06:38:39;17.20;82.50
37050;DHT22;22958;51.232;6.826;2023-06-04T06:41:05;17.30;82.10
37050;DHT22;22958;51.232;6.826;2023-06-04T06:43:31;17.40;81.40
37050;DHT22;22958;51.232;6.826;2023-06-04T06:45:57;17.50;81.80
37050;DHT22;22958;51.232;6.826;2023-06-04T06:48:23;17.60;80.70
37050;DHT22;22958;51.232;6.826;2023-06-04T06:50:48;17.60;81.20
37050;DHT22;22958;51.232;6.826;2023-06-04T06:53:14;17.90;79.40
37050;DHT22;22958;51.232;6.826;2023-06-04T06:55:40;17.80;79.50
37050;DHT22;22958;51.232;6.826;2023-06-04T06:58:05;17.90;79.10
37050;DHT22;22958;51.232;6.826;2023-06-04T07:00:31;18.10;79.30
37050;DHT22;22958;51.232;6.826;2023-06-04T07:02:56;18.10;78.60
37050;DHT22;22958;51.232;6.826;2023-06-04T07:05:22;18.00;78.40
37050;DHT22;22958;51.232;6.826;2023-06-04T07:07:47;18.00;78.80
37050;DHT22;22958;51.232;6.826;2023-06-04T07:10:13;18.30;78.10
37050;DHT22;22958;51.232;6.826;2023-06-04T07:12:39;18.50;77.40
37050;DHT22;22958;51.232;6.826;2023-06-04T07:15:06;18.70;76.40
37050;DHT22;22958;51.232;6.826;2023-06-04T07:17:31;18.90;74.50
37050;DHT22;22958;51.232;6.826;2023-06-04T07:19:57;19.00;74.00
37050;DHT22;22958;51.232;6.826;2023-06-04T07:22:22;19.10;73.10
37050;DHT22;22958;51.232;6.826;2023-06-04T07:24:48;19.30;72.90
37050;DHT22;22958;51.232;6.826;2023-06-04T07:27:14;19.30;73.30
37050;DHT22;22958;51.232;6.826;2023-06-04T07:29:40;19.40;71.40
37050;DHT22;22958;51.232;6.826;2023-06-04T07:32:07;19.50;71.00
37050;DHT22;22958;51.232;6.826;2023-06-04T07:34:33;19.50;71.40
37050;DHT22;22958;51.232;6.826;2023-06-04T07:36:58;19.50;71.50
37050;DHT22;22958;51.232;6.826;2023-06-04T07:39:24;19.40;71.50
37050;DHT22;22958;51.232;6.826;2023-06-04T07:41:51;19.40;72.50
37050;DHT22;22958;51.232;6.826;2023-06-04T07:44:16;19.60;72.30
37050;DHT22;22958;51.232;6.826;2023-06-04T07:46:42;19.60;72.50
37050;DHT22;22958;51.232;6.826;2023-06-04T07:49:08;19.70;72.90
37050;DHT22;22958;51.232;6.826;2023-06-04T07:51:33;19.90;71.60
37050;DHT22;22958;51.232;6.826;2023-06-04T07:54:00;20.10;70.30
37050;DHT22;22958;51.232;6.826;2023-06-04T07:56:26;20.20;70.00
37050;DHT22;22958;51.232;6.826;2023-06-04T07:58:52;20.30;70.20
37050;DHT22;22958;51.232;6.826;2023-06-04T08:01:17;20.30;70.40
37050;DHT22;22958;51.232;6.826;2023-06-04T08:03:43;20.50;69.60
37050;DHT22;22958;51.232;6.826;2023-06-04T08:06:09;20.50;70.00
37050;DHT22;22958;51.232;6.826;2023-06-04T08:08:35;20.20;69.30
37050;DHT22;22958;51.232;6.826;2023-06-04T08:11:00;20.00;69.70
37050;DHT22;22958;51.232;6.826;2023-06-04T08:13:26;20.10;70.60
37050;DHT22;22958;51.232;6.826;2023-06-04T08:15:51;20.20;69.50
37050;DHT22;22958;51.232;6.826;2023-06-04T08:18:17;20.60;68.20
37050;DHT22;22958;51.232;6.826;2023-06-04T08:20:42;20.50;69.00
37050;DHT22;22958;51.232;6.826;2023-06-04T08:23:08;20.50;69.00
37050;DHT22;22958;51.232;6.826;2023-06-04T08:25:33;20.70;68.50
37050;DHT22;22958;51.232;6.826;2023-06-04T08:27:59;20.90;67.60
37050;DHT22;22958;51.232;6.826;2023-06-04T08:30:25;21.00;67.20
37050;DHT22;22958;51.232;6.826;2023-06-04T08:32:53;20.80;67.30
37050;DHT22;22958;51.232;6.826;2023-06-04T08:35:18;20.60;67.40
37050;DHT22;22958;51.232;6.826;2023-06-04T08:37:44;20.70;66.90
37050;DHT22;22958;51.232;6.826;2023-06-04T08:40:09;20.80;67.30
37050;DHT22;22958;51.232;6.826;2023-06-04T08:42:42;21.10;65.40
37050;DHT22;22958;51.232;6.826;2023-06-04T08:45:12;21.20;64.70
37050;DHT22;22958;51.232;6.826;2023-06-04T08:47:42;21.30;65.40
37050;DHT22;22958;51.232;6.826;2023-06-04T08:50:09;21.60;64.70
37050;DHT22;22958;51.232;6.826;2023-06-04T08:52:36;21.60;62.30
37050;DHT22;22958;51.232;6.826;2023-06-04T08:55:03;21.70;60.10
37050;DHT22;22958;51.232;6.826;2023-06-04T08:57:30;21.40;60.80
37050;DHT22;22958;51.232;6.826;2023-06-04T08:59:56;21.60;60.80
37050;DHT22;22958;51.232;6.826;2023-06-04T09:02:22;21.20;60.00
37050;DHT22;22958;51.232;6.826;2023-06-04T09:04:47;21.30;60.70
37050;DHT22;22958;51.232;6.826;2023-06-04T09:07:14;21.40;60.50
37050;DHT22;22958;51.232;6.826;2023-06-04T09:09:44;21.60;58.60
37050;DHT22;22958;51.232;6.826;2023-06-04T09:12:13;21.70;58.50
37050;DHT22;22958;51.232;6.826;2023-06-04T09:14:40;21.70;58.50
37050;DHT22;22958;51.232;6.826;2023-06-04T09:17:05;21.60;58.60
37050;DHT22;22958;51.232;6.826;2023-06-04T09:19:31;21.40;59.50
37050;DHT22;22958;51.232;6.826;2023-06-04T09:21:58;21.70;58.90
37050;DHT22;22958;51.232;6.826;2023-06-04T09:24:25;21.80;58.40
37050;DHT22;22958;51.232;6.826;2023-06-04T09:26:51;21.90;57.10
37050;DHT22;22958;51.232;6.826;2023-06-04T09:29:17;22.10;56.70
37050;DHT22;22958;51.232;6.826;2023-06-04T09:31:47;22.30;56.70
37050;DHT22;22958;51.232;6.826;2023-06-04T09:34:13;22.20;57.90
37050;DHT22;22958;51.232;6.826;2023-06-04T09:36:39;22.20;58.10
37050;DHT22;22958;51.232;6.826;2023-06-04T09:39:16;21.90;56.80
37050;DHT22;22958;51.232;6.826;2023-06-04T09:41:41;22.10;57.50
37050;DHT22;22958;51.232;6.826;2023-06-04T09:44:07;22.30;56.80
37050;DHT22;22958;51.232;6.826;2023-06-04T09:46:36;22.40;56.40
37050;DHT22;22958;51.232;6.826;2023-06-04T09:49:04;22.40;55.50
37050;DHT22;22958;51.232;6.826;2023-06-04T09:51:30;22.10;55.00
37050;DHT22;22958;51.232;6.826;2023-06-04T09:53:57;21.80;56.10
37050;DHT22;22958;51.232;6.826;2023-06-04T09:56:24;22.10;55.40
37050;DHT22;22958;51.232;6.826;2023-06-04T09:58:49;22.30;55.30
37050;DHT22;22958;51.232;6.826;2023-06-04T10:01:19;22.40;54.50
37050;DHT22;22958;51.232;6.826;2023-06-04T10:03:47;22.40;54.30
37050;DHT22;22958;51.232;6.826;2023-06-04T10:06:15;22.60;54.80
37050;DHT22;22958;51.232;6.826;2023-06-04T10:08:45;22.60;55.10
37050;DHT22;22958;51.232;6.826;2023-06-04T10:11:12;22.60;55.50
37050;DHT22;22958;51.232;6.826;2023-06-04T10:13:48;22.50;54.60
37050;DHT22;22958;51.232;6.826;2023-06-04T10:16:18;22.70;54.90
37050;DHT22;22958;51.232;6.826;2023-06-04T10:18:45;22.90;54.30
37050;DHT22;22958;51.232;6.826;2023-06-04T10:21:13;22.60;54.10
37050;DHT22;22958;51.232;6.826;2023-06-04T10:23:40;22.80;53.50
37050;DHT22;22958;51.232;6.826;2023-06-04T10:26:07;22.80;53.00
37050;DHT22;22958;51.232;6.826;2023-06-04T10:28:34;22.60;53.80
37050;DHT22;22958;51.232;6.826;2023-06-04T10:31:00;22.80;54.70
37050;DHT22;22958;51.232;6.826;2023-06-04T10:33:26;23.00;54.40
37050;DHT22;22958;51.232;6.826;2023-06-04T10:35:54;22.60;53.20
37050;DHT22;22958;51.232;6.826;2023-06-04T10:38:21;22.40;53.40
37050;DHT22;22958;51.232;6.826;2023-06-04T10:40:47;22.30;53.60
37050;DHT22;22958;51.232;6.826;2023-06-04T10:43:14;22.00;54.10
37050;DHT22;22958;51.232;6.826;2023-06-04T10:45:41;22.40;54.30
37050;DHT22;22958;51.232;6.826;2023-06-04T10:48:09;22.60;53.60
37050;DHT22;22958;51.232;6.826;2023-06-04T10:50:48;22.90;53.40
37050;DHT22;22958;51.232;6.826;2023-06-04T10:53:14;22.80;53.00
37050;DHT22;22958;51.232;6.826;2023-06-04T10:55:49;22.70;52.40
37050;DHT22;22958;51.232;6.826;2023-06-04T10:58:15;22.80;53.20
37050;DHT22;22958;51.232;6.826;2023-06-04T11:00:45;22.90;53.00
37050;DHT22;22958;51.232;6.826;2023-06-04T11:03:12;23.20;53.20
37050;DHT22;22958;51.232;6.826;2023-06-04T11:05:43;23.40;52.10
37050;DHT22;22958;51.232;6.826;2023-06-04T11:08:10;23.50;52.30
37050;DHT22;22958;51.232;6.826;2023-06-04T11:10:38;24.00;52.20
37050;DHT22;22958;51.232;6.826;2023-06-04T11:13:05;24.50;50.70
37050;DHT22;22958;51.232;6.826;2023-06-04T11:15:43;25.10;49.70
37050;DHT22;22958;51.232;6.826;2023-06-04T11:18:22;25.70;49.00
37050;DHT22;22958;51.232;6.826;2023-06-04T11:20:49;27.00;47.10
37050;DHT22;22958;51.232;6.826;2023-06-04T11:23:16;27.20;46.40
37050;DHT22;22958;51.232;6.826;2023-06-04T11:25:42;28.60;45.20
37050;DHT22;22958;51.232;6.826;2023-06-04T11:28:15;27.10;44.90
37050;DHT22;22958;51.232;6.826;2023-06-04T11:30:41;26.60;44.20
37050;DHT22;22958;51.232;6.826;2023-06-04T11:33:07;25.90;46.00
37050;DHT22;22958;51.232;6.826;2023-06-04T11:35:40;26.50;46.30
37050;DHT22;22958;51.232;6.826;2023-06-04T11:38:06;28.70;44.30
37050;DHT22;22958;51.232;6.826;2023-06-04T11:40:32;30.40;41.90
37050;DHT22;22958;51.232;6.826;2023-06-04T11:42:58;31.50;39.90
37050;DHT22;22958;51.232;6.826;2023-06-04T11:45:23;32.20;38.20
37050;DHT22;22958;51.232;6.826;2023-06-04T11:47:54;31.80;37.50
37050;DHT22;22958;51.232;6.826;2023-06-04T11:50:21;30.00;37.70
37050;DHT22;22958;51.232;6.826;2023-06-04T11:52:52;31.20;37.70
37050;DHT22;22958;51.232;6.826;2023-06-04T11:55:18;31.90;36.50
37050;DHT22;22958;51.232;6.826;2023-06-04T11:57:46;32.10;36.20
37050;DHT22;22958;51.232;6.826;2023-06-04T12:00:12;32.80;34.70
37050;DHT22;22958;51.232;6.826;2023-06-04T12:05:15;33.40;32.60
37050;DHT22;22958;51.232;6.826;2023-06-04T12:07:44;33.20;32.80
37050;DHT22;22958;51.232;6.826;2023-06-04T12:10:10;33.30;32.90
37050;DHT22;22958;51.232;6.826;2023-06-04T12:12:37;31.30;32.00
37050;DHT22;22958;51.232;6.826;2023-06-04T12:15:03;29.80;32.90
37050;DHT22;22958;51.232;6.826;2023-06-04T12:17:31;29.90;33.20
37050;DHT22;22958;51.232;6.826;2023-06-04T12:19:56;30.30;33.10
37050;DHT22;22958;51.232;6.826;2023-06-04T12:22:25;31.20;32.50
37050;DHT22;22958;51.232;6.826;2023-06-04T12:24:56;32.40;31.70
37050;DHT22;22958;51.232;6.826;2023-06-04T12:27:24;33.60;30.30
37050;DHT22;22958;51.232;6.826;2023-06-04T12:30:01;30.50;31.70
37050;DHT22;22958;51.232;6.826;2023-06-04T12:32:27;29.80;32.60
37050;DHT22;22958;51.232;6.826;2023-06-04T12:34:53;30.40;33.00
37050;DHT22;22958;51.232;6.826;2023-06-04T12:37:21;30.70;32.80
37050;DHT22;22958;51.232;6.826;2023-06-04T12:39:47;31.80;32.10
37050;DHT22;22958;51.232;6.826;2023-06-04T12:42:12;32.30;31.30
37050;DHT22;22958;51.232;6.826;2023-06-04T12:44:41;33.20;30.60
37050;DHT22;22958;51.232;6.826;2023-06-04T12:47:07;33.10;29.60
37050;DHT22;22958;51.232;6.826;2023-06-04T12:49:33;34.20;29.00
37050;DHT22;22958;51.232;6.826;2023-06-04T12:51:59;32.60;29.60
37050;DHT22;22958;51.232;6.826;2023-06-04T12:54:24;32.80;29.40
37050;DHT22;22958;51.232;6.826;2023-06-04T12:56:50;33.10;29.40
37050;DHT22;22958;51.232;6.826;2023-06-04T12:59:16;33.00;29.30
37050;DHT22;22958;51.232;6.826;2023-06-04T13:01:42;32.00;29.90
37050;DHT22;22958;51.232;6.826;2023-06-04T13:04:07;29.60;31.60
37050;DHT22;22958;51.232;6.826;2023-06-04T13:06:33;31.10;30.60
37050;DHT22;22958;51.232;6.826;2023-06-04T13:08:59;32.00;29.90
37050;DHT22;22958;51.232;6.826;2023-06-04T13:11:25;33.40;29.40
37050;DHT22;22958;51.232;6.826;2023-06-04T13:13:51;33.40;28.80
37050;DHT22;22958;51.232;6.826;2023-06-04T13:16:16;34.50;28.40
37050;DHT22;22958;51.232;6.826;2023-06-04T13:18:42;34.10;28.60
37050;DHT22;22958;51.232;6.826;2023-06-04T13:21:07;33.40;28.90
37050;DHT22;22958;51.232;6.826;2023-06-04T13:23:33;34.40;27.50
37050;DHT22;22958;51.232;6.826;2023-06-04T13:25:58;34.10;26.80
37050;DHT22;22958;51.232;6.826;2023-06-04T13:28:26;33.10;27.60
37050;DHT22;22958;51.232;6.826;2023-06-04T13:30:51;33.10;27.60
37050;DHT22;22958;51.232;6.826;2023-06-04T13:33:17;33.60;27.40
37050;DHT22;22958;51.232;6.826;2023-06-04T13:35:44;31.90;27.90
37050;DHT22;22958;51.232;6.826;2023-06-04T13:38:10;32.60;29.00
37050;DHT22;22958;51.232;6.826;2023-06-04T13:40:36;33.60;28.00
37050;DHT22;22958;51.232;6.826;2023-06-04T13:43:02;32.20;28.30
37050;DHT22;22958;51.232;6.826;2023-06-04T13:45:27;31.50;28.30
37050;DHT22;22958;51.232;6.826;2023-06-04T13:47:53;33.40;28.30
37050;DHT22;22958;51.232;6.826;2023-06-04T13:50:18;31.50;29.10
37050;DHT22;22958;51.232;6.826;2023-06-04T13:52:44;32.40;29.20
37050;DHT22;22958;51.232;6.826;2023-06-04T13:55:11;32.60;29.20
37050;DHT22;22958;51.232;6.826;2023-06-04T13:57:36;32.50;29.10
37050;DHT22;22958;51.232;6.826;2023-06-04T14:00:02;32.50;29.00
37050;DHT22;22958;51.232;6.826;2023-06-04T14:02:28;31.50;29.40
37050;DHT22;22958;51.232;6.826;2023-06-04T14:04:53;31.20;30.70
37050;DHT22;22958;51.232;6.826;2023-06-04T14:07:20;32.20;30.40
37050;DHT22;22958;51.232;6.826;2023-06-04T14:09:45;33.20;29.10
37050;DHT22;22958;51.232;6.826;2023-06-04T14:12:11;33.10;29.00
37050;DHT22;22958;51.232;6.826;2023-06-04T14:14:37;33.60;29.50
37050;DHT22;22958;51.232;6.826;2023-06-04T14:17:03;33.40;28.90
37050;DHT22;22958;51.232;6.826;2023-06-04T14:19:29;33.40;28.90
37050;DHT22;22958;51.232;6.826;2023-06-04T14:21:54;33.70;29.00
37050;DHT22;22958;51.232;6.826;2023-06-04T14:24:20;34.20;29.00
37050;DHT22;22958;51.232;6.826;2023-06-04T14:26:46;33.00;28.90
37050;DHT22;22958;51.232;6.826;2023-06-04T14:29:11;33.40;29.10
37050;DHT22;22958;51.232;6.826;2023-06-04T14:31:38;32.40;29.30
37050;DHT22;22958;51.232;6.826;2023-06-04T14:34:04;31.80;29.70
37050;DHT22;22958;51.232;6.826;2023-06-04T14:36:30;30.70;30.00
37050;DHT22;22958;51.232;6.826;2023-06-04T14:38:56;30.90;31.40
37050;DHT22;22958;51.232;6.826;2023-06-04T14:41:22;31.50;31.10
37050;DHT22;22958;51.232;6.826;2023-06-04T14:43:47;32.00;30.90
37050;DHT22;22958;51.232;6.826;2023-06-04T14:46:13;31.30;30.30
37050;DHT22;22958;51.232;6.826;2023-06-04T14:48:38;31.70;30.10
37050;DHT22;22958;51.232;6.826;2023-06-04T14:51:04;31.00;30.20
37050;DHT22;22958;51.232;6.826;2023-06-04T14:53:30;31.50;30.20
37050;DHT22;22958;51.232;6.826;2023-06-04T14:55:55;31.10;30.70
37050;DHT22;22958;51.232;6.826;2023-06-04T14:58:21;30.90;31.30
37050;DHT22;22958;51.232;6.826;2023-06-04T15:00:46;30.90;31.00
37050;DHT22;22958;51.232;6.826;2023-06-04T15:03:12;30.00;31.80
37050;DHT22;22958;51.232;6.826;2023-06-04T15:05:38;30.20;31.60
37050;DHT22;22958;51.232;6.826;2023-06-04T15:08:03;30.30;31.80
37050;DHT22;22958;51.232;6.826;2023-06-04T15:10:30;30.80;31.80
37050;DHT22;22958;51.232;6.826;2023-06-04T15:12:56;31.20;31.50
37050;DHT22;22958;51.232;6.826;2023-06-04T15:15:22;31.10;31.00
37050;DHT22;22958;51.232;6.826;2023-06-04T15:17:48;31.20;31.10
37050;DHT22;22958;51.232;6.826;2023-06-04T15:20:14;30.80;31.10
37050;DHT22;22958;51.232;6.826;2023-06-04T15:22:40;29.60;32.60
37050;DHT22;22958;51.232;6.826;2023-06-04T15:25:05;30.30;32.90
37050;DHT22;22958;51.232;6.826;2023-06-04T15:27:31;31.10;31.70